Terminal Aerodrome Forecast
Issued by NWS

Home | Current Version | Previous Version | Text Only | Print | Product List | Glossary On
Versions: 1 2 3 4 5 6 7 8 9 10 11 12 13 14 15 16 17 18 19 20 21 22 23 24 25
000
FTUS44 KOUN 152333
TAFWWR
TAF
KWWR 152333Z 1600/1624 01011G18KT P6SM OVC050
     FM160700 02007KT P6SM BKN030
     FM161200 07006KT P6SM OVC010
     FM161500 16009KT P6SM BKN015
     FM161800 18010G15KT P6SM FEW030=

USA.gov is the U.S. government's official web portal to all federal, state and local government web resources and services.